createdAt,value
2017-09-18T00:00:34.698Z,10.15
2017-09-18T00:01:43.540Z,10.17
2017-09-18T00:02:52.379Z,10.15
2017-09-18T00:04:01.219Z,10.18
2017-09-18T00:05:10.061Z,10.12
2017-09-18T00:06:19.052Z,10.11
2017-09-18T00:07:28.225Z,10.02
2017-09-18T00:08:37.409Z,9.99
2017-09-18T00:09:46.583Z,9.97
2017-09-18T00:10:55.424Z,9.96
2017-09-18T00:12:04.418Z,9.9
2017-09-18T00:13:13.259Z,9.86
2017-09-18T00:14:22.105Z,9.86
2017-09-18T00:15:30.940Z,9.89
2017-09-18T00:16:39.781Z,9.83
2017-09-18T00:17:48.675Z,9.87
2017-09-18T00:18:57.514Z,9.83
2017-09-18T00:20:06.359Z,9.9
2017-09-18T00:21:15.202Z,9.78
2017-09-18T00:22:24.374Z,9.78
2017-09-18T00:23:33.417Z,9.83
2017-09-18T00:24:42.258Z,9.76
2017-09-18T00:25:51.429Z,9.72
2017-09-18T00:27:00.273Z,9.71
2017-09-18T00:28:09.114Z,9.66
2017-09-18T00:29:18.109Z,9.71
2017-09-18T00:30:26.951Z,9.69
2017-09-18T00:31:35.796Z,9.65
2017-09-18T00:32:44.636Z,9.66
2017-09-18T00:33:53.486Z,9.69
2017-09-18T00:35:02.421Z,9.65
2017-09-18T00:36:11.266Z,9.71
2017-09-18T00:37:20.108Z,9.68
2017-09-18T00:38:28.951Z,9.56
2017-09-18T00:39:37.801Z,9.65
2017-09-18T00:40:46.791Z,9.6
2017-09-18T00:41:55.633Z,9.54
2017-09-18T00:43:04.480Z,9.48
2017-09-18T00:44:13.318Z,9.53
2017-09-18T00:45:22.156Z,9.54
2017-09-18T00:46:31.044Z,9.53
2017-09-18T00:47:39.887Z,9.51
2017-09-18T00:48:48.726Z,9.56
2017-09-18T00:49:57.566Z,9.47
2017-09-18T00:51:06.407Z,9.48
2017-09-18T00:52:15.396Z,9.4
2017-09-18T00:53:24.237Z,9.47
2017-09-18T00:54:33.101Z,9.4
2017-09-18T00:55:42.249Z,9.38
2017-09-18T00:56:51.088Z,9.39
2017-09-18T00:57:59.983Z,9.38
2017-09-18T00:59:08.823Z,9.4
2017-09-18T01:00:17.665Z,9.39
2017-09-18T01:01:26.505Z,9.42
2017-09-18T01:02:35.344Z,9.42
2017-09-18T01:03:44.332Z,9.36
2017-09-18T01:04:53.178Z,9.35
2017-09-18T01:06:02.020Z,9.28
2017-09-18T01:07:10.859Z,9.32
2017-09-18T01:08:20.037Z,9.28
2017-09-18T01:09:29.181Z,9.26
2017-09-18T01:10:38.020Z,9.23
2017-09-18T01:11:46.861Z,9.17
2017-09-18T01:12:56.369Z,9.28
2017-09-18T01:14:05.210Z,9.28
2017-09-18T01:15:14.205Z,9.23
2017-09-18T01:16:23.044Z,9.26
2017-09-18T01:17:31.885Z,9.18
2017-09-18T01:18:40.725Z,9.11
2017-09-18T01:19:49.570Z,9.11
2017-09-18T01:20:58.559Z,9.18
2017-09-18T01:22:07.401Z,9.11
2017-09-18T01:23:16.578Z,9.05
2017-09-18T01:24:25.418Z,9.1
2017-09-18T01:25:34.258Z,9.04
2017-09-18T01:26:43.397Z,9.04
2017-09-18T01:27:52.239Z,9.02
2017-09-18T01:29:01.080Z,9.05
2017-09-18T01:30:09.921Z,9.05
2017-09-18T01:31:18.762Z,9.14
2017-09-18T01:32:27.653Z,9.05
2017-09-18T01:33:36.492Z,9.04
2017-09-18T01:34:45.332Z,9.05
2017-09-18T01:35:54.173Z,9.1
2017-09-18T01:37:03.013Z,8.99
2017-09-18T01:38:12.009Z,8.95
2017-09-18T01:39:20.848Z,8.92
2017-09-18T01:40:29.688Z,8.96
2017-09-18T01:41:38.529Z,9.01
2017-09-18T01:42:47.372Z,8.96
2017-09-18T01:43:56.362Z,9.02
2017-09-18T01:45:05.203Z,8.95
2017-09-18T01:46:14.046Z,8.94
2017-09-18T01:47:22.884Z,8.99
2017-09-18T01:48:31.725Z,8.99
2017-09-18T01:49:41.067Z,8.96
2017-09-18T01:50:50.582Z,8.95
2017-09-18T01:51:59.418Z,8.91
2017-09-18T01:53:08.258Z,8.91
2017-09-18T01:54:17.095Z,8.91
2017-09-18T01:55:26.086Z,8.91
2017-09-18T01:56:35.262Z,9.02
2017-09-18T01:57:44.105Z,8.94
2017-09-18T01:58:52.943Z,8.87
2017-09-18T02:00:01.785Z,8.91
2017-09-18T02:01:10.626Z,8.8
2017-09-18T02:02:19.466Z,8.8
2017-09-18T02:03:28.303Z,8.76
2017-09-18T02:04:37.143Z,8.8
2017-09-18T02:05:45.985Z,8.76
2017-09-18T02:06:54.975Z,8.73
2017-09-18T02:08:03.817Z,8.73
2017-09-18T02:09:12.656Z,8.74
2017-09-18T02:10:21.831Z,8.71
2017-09-18T02:11:30.668Z,8.8
2017-09-18T02:12:39.764Z,8.79
2017-09-18T02:13:48.936Z,8.73
2017-09-18T02:14:57.776Z,8.76
2017-09-18T02:16:06.616Z,8.76
2017-09-18T02:17:15.456Z,8.74
2017-09-18T02:18:24.447Z,8.63
2017-09-18T02:19:33.283Z,8.68
2017-09-18T02:20:42.452Z,8.68
2017-09-18T02:21:51.289Z,8.65
2017-09-18T02:23:00.132Z,8.62
2017-09-18T02:24:09.354Z,8.66
2017-09-18T02:25:18.196Z,8.65
2017-09-18T02:26:27.031Z,8.66
2017-09-18T02:27:35.875Z,8.55
2017-09-18T02:28:45.046Z,8.61
2017-09-18T02:29:54.185Z,8.62
2017-09-18T02:31:03.027Z,8.48
2017-09-18T02:32:11.870Z,8.58
2017-09-18T02:33:20.710Z,8.62
2017-09-18T02:34:29.550Z,8.61
2017-09-18T02:35:38.489Z,8.62
2017-09-18T02:36:47.335Z,8.56
2017-09-18T02:37:56.178Z,8.63
2017-09-18T02:39:05.014Z,8.55
2017-09-18T02:40:13.853Z,8.53
2017-09-18T02:41:22.693Z,8.56
2017-09-18T02:42:31.532Z,8.62
2017-09-18T02:43:40.370Z,8.52
2017-09-18T02:44:49.209Z,8.58
2017-09-18T02:45:58.050Z,8.56
2017-09-18T02:47:06.937Z,8.5
2017-09-18T02:48:15.781Z,8.53
2017-09-18T02:49:24.621Z,8.58
2017-09-18T02:50:33.460Z,8.53
2017-09-18T02:51:42.298Z,8.53
2017-09-18T02:52:51.287Z,8.56
2017-09-18T02:54:00.130Z,8.52
2017-09-18T02:55:08.970Z,8.53
2017-09-18T02:56:17.812Z,8.59
2017-09-18T02:57:26.653Z,8.58
2017-09-18T02:58:35.487Z,8.66
2017-09-18T02:59:44.328Z,8.58
2017-09-18T03:00:53.167Z,8.65
2017-09-18T03:02:02.341Z,8.74
2017-09-18T03:03:11.179Z,8.66
2017-09-18T03:04:20.171Z,8.74
2017-09-18T03:05:29.013Z,8.71
2017-09-18T03:06:37.864Z,8.8
2017-09-18T03:07:46.693Z,8.73
2017-09-18T03:08:55.534Z,8.79
2017-09-18T03:10:04.376Z,8.81
2017-09-18T03:11:13.218Z,8.77
2017-09-18T03:12:22.058Z,8.74
2017-09-18T03:13:30.898Z,8.76
2017-09-18T03:14:39.736Z,8.84
2017-09-18T03:15:48.629Z,8.84
2017-09-18T03:16:58.132Z,8.87
2017-09-18T03:18:06.975Z,8.91
2017-09-18T03:19:15.813Z,8.87
2017-09-18T03:20:24.653Z,8.91
2017-09-18T03:21:33.496Z,8.96
2017-09-18T03:22:42.335Z,8.95
2017-09-18T03:23:51.175Z,9.01
2017-09-18T03:25:00.018Z,9.05
2017-09-18T03:26:09.188Z,8.92
2017-09-18T03:27:18.327Z,8.96
2017-09-18T03:28:27.165Z,9.02
2017-09-18T03:29:36.336Z,9.11
2017-09-18T03:30:45.509Z,9.11
2017-09-18T03:31:54.347Z,9.13
2017-09-18T03:33:03.343Z,9.02
2017-09-18T03:34:12.182Z,9.1
2017-09-18T03:35:21.024Z,9.1
2017-09-18T03:36:29.863Z,9.11
2017-09-18T03:37:38.707Z,9.05
2017-09-18T03:38:47.697Z,9.18
2017-09-18T03:39:56.539Z,9.2
2017-09-18T03:41:05.381Z,9.17
2017-09-18T03:42:14.220Z,9.24
2017-09-18T03:43:23.062Z,9.18
2017-09-18T03:44:32.052Z,9.23
2017-09-18T03:45:40.891Z,9.28
2017-09-18T03:46:50.069Z,9.26
2017-09-18T03:47:58.908Z,9.28
2017-09-18T03:49:07.749Z,9.29
2017-09-18T03:50:16.591Z,9.18
2017-09-18T03:51:25.766Z,9.15
2017-09-18T03:52:34.601Z,9.15
2017-09-18T03:53:43.443Z,9.23
2017-09-18T03:54:52.285Z,9.23
2017-09-18T03:56:01.226Z,9.28
2017-09-18T03:57:10.069Z,9.29
2017-09-18T03:58:18.910Z,9.36
2017-09-18T03:59:27.752Z,9.26
2017-09-18T04:00:36.596Z,9.26
2017-09-18T04:01:45.589Z,9.24
2017-09-18T04:02:54.430Z,9.26
2017-09-18T04:04:03.271Z,9.24
2017-09-18T04:05:12.110Z,9.24
2017-09-18T04:06:20.949Z,9.28
2017-09-18T04:07:29.892Z,9.26
2017-09-18T04:08:39.064Z,9.32
2017-09-18T04:09:47.905Z,9.32
2017-09-18T04:10:56.750Z,9.31
2017-09-18T04:12:05.592Z,9.35
2017-09-18T04:13:14.584Z,9.33
2017-09-18T04:14:23.427Z,9.33
2017-09-18T04:15:32.269Z,9.36
2017-09-18T04:16:41.110Z,9.39
2017-09-18T04:17:49.952Z,9.35
2017-09-18T04:18:59.094Z,9.38
2017-09-18T04:20:07.933Z,9.36
2017-09-18T04:21:16.776Z,9.33
2017-09-18T04:22:25.618Z,9.33
2017-09-18T04:23:34.461Z,9.33
2017-09-18T04:24:43.299Z,9.33
2017-09-18T04:25:52.143Z,9.4
2017-09-18T04:27:00.986Z,9.42
2017-09-18T04:28:09.827Z,9.36
2017-09-18T04:29:18.669Z,9.35
2017-09-18T04:30:27.845Z,9.39
2017-09-18T04:31:36.685Z,9.4
2017-09-18T04:32:45.526Z,9.4
2017-09-18T04:33:54.367Z,9.38
2017-09-18T04:35:03.545Z,9.35
2017-09-18T04:36:12.385Z,9.35
2017-09-18T04:37:21.226Z,9.42
2017-09-18T04:38:30.072Z,9.42
2017-09-18T04:39:38.913Z,9.43
2017-09-18T04:40:47.756Z,9.38
2017-09-18T04:41:56.797Z,9.43
2017-09-18T04:43:05.637Z,9.39
2017-09-18T04:44:14.482Z,9.43
2017-09-18T04:45:23.324Z,9.46
2017-09-18T04:46:32.166Z,9.43
2017-09-18T04:47:41.054Z,9.36
2017-09-18T04:48:49.897Z,9.39
2017-09-18T04:49:58.739Z,9.42
2017-09-18T04:51:07.586Z,9.42
2017-09-18T04:52:16.431Z,9.39
2017-09-18T04:53:25.374Z,9.42
2017-09-18T04:54:34.216Z,9.5
2017-09-18T04:55:43.056Z,9.5
2017-09-18T04:56:51.898Z,9.47
2017-09-18T04:58:00.739Z,9.46
2017-09-18T04:59:09.630Z,9.39
2017-09-18T05:00:18.473Z,9.56
2017-09-18T05:01:27.311Z,9.51
2017-09-18T05:02:36.154Z,9.51
2017-09-18T05:03:44.994Z,9.53
2017-09-18T05:04:53.836Z,9.53
2017-09-18T05:06:02.675Z,9.56
2017-09-18T05:07:11.511Z,9.51
2017-09-18T05:08:20.350Z,9.53
2017-09-18T05:09:29.191Z,9.56
2017-09-18T05:10:38.131Z,9.53
2017-09-18T05:11:46.973Z,9.61
2017-09-18T05:12:55.816Z,9.56
2017-09-18T05:14:04.985Z,9.57
2017-09-18T05:15:13.827Z,9.48
2017-09-18T05:16:22.718Z,9.6
2017-09-18T05:17:31.560Z,9.51
2017-09-18T05:18:40.402Z,9.5
2017-09-18T05:19:49.244Z,9.56
2017-09-18T05:20:58.087Z,9.65
2017-09-18T05:22:07.029Z,9.61
2017-09-18T05:23:15.869Z,9.47
2017-09-18T05:24:24.711Z,9.5
2017-09-18T05:25:33.554Z,9.54
2017-09-18T05:26:42.393Z,9.57
2017-09-18T05:27:51.334Z,9.69
2017-09-18T05:29:00.176Z,9.58
2017-09-18T05:30:09.016Z,9.66
2017-09-18T05:31:17.861Z,9.65
2017-09-18T05:32:26.769Z,9.72
2017-09-18T05:33:36.098Z,9.66
2017-09-18T05:34:45.005Z,9.69
2017-09-18T05:35:53.925Z,9.68
2017-09-18T05:37:02.862Z,9.66
2017-09-18T05:38:11.739Z,9.65
2017-09-18T05:39:20.664Z,9.68
2017-09-18T05:40:29.584Z,9.64
2017-09-18T05:41:38.467Z,9.71
2017-09-18T05:42:47.359Z,9.78
2017-09-18T05:43:56.300Z,9.71
2017-09-18T05:45:05.238Z,9.74
2017-09-18T05:46:14.157Z,9.71
2017-09-18T05:47:23.017Z,9.74
2017-09-18T05:48:31.889Z,9.76
2017-09-18T05:49:40.846Z,9.75
2017-09-18T05:50:49.871Z,9.76
2017-09-18T05:51:58.761Z,9.78
2017-09-18T05:53:07.978Z,9.75
2017-09-18T05:54:17.005Z,9.66
2017-09-18T05:55:25.887Z,9.78
2017-09-18T05:56:34.769Z,9.78
2017-09-18T05:57:43.705Z,9.69
2017-09-18T05:58:52.598Z,9.72
2017-09-18T06:00:01.473Z,9.64
2017-09-18T06:01:10.376Z,9.66
2017-09-18T06:02:19.298Z,9.69
2017-09-18T06:03:28.558Z,9.76
2017-09-18T06:04:37.656Z,9.76
2017-09-18T06:05:46.513Z,9.75
2017-09-18T06:06:55.478Z,9.72
2017-09-18T06:08:04.409Z,9.79
2017-09-18T06:09:13.309Z,9.74
2017-09-18T06:10:22.371Z,9.76
2017-09-18T06:11:31.281Z,9.81
2017-09-18T06:12:40.141Z,9.71
2017-09-18T06:13:49.046Z,9.78
2017-09-18T06:14:57.956Z,9.75
2017-09-18T06:16:06.869Z,9.79
2017-09-18T06:17:15.720Z,9.75
2017-09-18T06:18:24.898Z,9.74
2017-09-18T06:19:33.743Z,9.75
2017-09-18T06:20:42.588Z,9.78
2017-09-18T06:21:51.581Z,9.75
2017-09-18T06:23:00.430Z,9.83
2017-09-18T06:24:09.280Z,9.75
2017-09-18T06:25:18.125Z,9.72
2017-09-18T06:26:27.306Z,9.71
2017-09-18T06:27:36.410Z,9.86
2017-09-18T06:28:45.255Z,9.79
2017-09-18T06:29:54.100Z,9.89
2017-09-18T06:31:02.941Z,9.87
2017-09-18T06:32:11.785Z,9.89
2017-09-18T06:33:20.830Z,9.91
2017-09-18T06:34:29.679Z,9.94
2017-09-18T06:35:38.521Z,9.87
2017-09-18T06:36:47.366Z,9.91
2017-09-18T06:37:56.209Z,9.97
2017-09-18T06:39:05.052Z,9.99
2017-09-18T06:40:13.897Z,9.93
2017-09-18T06:41:22.748Z,9.93
2017-09-18T06:42:31.593Z,10.01
2017-09-18T06:43:40.438Z,10.02
2017-09-18T06:44:49.434Z,10.01
2017-09-18T06:45:58.288Z,9.94
2017-09-18T06:47:07.132Z,9.96
2017-09-18T06:48:15.973Z,10.04
2017-09-18T06:49:24.817Z,10.01
2017-09-18T06:50:34.062Z,10.08
2017-09-18T06:51:42.919Z,10.07
2017-09-18T06:52:51.832Z,10.08
2017-09-18T06:54:00.703Z,10.14
2017-09-18T06:55:09.553Z,10.18
2017-09-18T06:56:18.450Z,10.17
2017-09-18T06:57:27.297Z,10.17
2017-09-18T06:58:36.140Z,10.2
2017-09-18T06:59:44.988Z,10.18
2017-09-18T07:00:53.836Z,10.26
2017-09-18T07:02:02.985Z,10.33
2017-09-18T07:03:11.834Z,10.26
2017-09-18T07:04:20.682Z,10.23
2017-09-18T07:05:29.532Z,10.3
2017-09-18T07:06:38.378Z,10.3
2017-09-18T07:07:47.376Z,10.32
2017-09-18T07:08:56.228Z,10.23
2017-09-18T07:10:05.075Z,10.34
2017-09-18T07:11:13.921Z,10.42
2017-09-18T07:12:22.783Z,10.41
2017-09-18T07:13:31.930Z,10.29
2017-09-18T07:14:40.779Z,10.48
2017-09-18T07:15:49.629Z,10.48
2017-09-18T07:16:58.476Z,10.44
2017-09-18T07:18:07.673Z,10.63
2017-09-18T07:19:16.521Z,10.64
2017-09-18T07:20:25.375Z,10.7
2017-09-18T07:21:34.219Z,10.71
2017-09-18T07:22:43.069Z,10.7
2017-09-18T07:23:51.915Z,10.81
2017-09-18T07:25:00.911Z,10.84
2017-09-18T07:26:09.757Z,10.81
2017-09-18T07:27:18.602Z,10.78
2017-09-18T07:28:27.486Z,10.94
2017-09-18T07:29:36.332Z,10.85
2017-09-18T07:30:45.334Z,10.85
2017-09-18T07:31:54.177Z,10.89
2017-09-18T07:33:03.024Z,10.88
2017-09-18T07:34:11.877Z,11.02
2017-09-18T07:35:20.722Z,10.94
2017-09-18T07:36:29.871Z,10.97
2017-09-18T07:37:38.730Z,11.07
2017-09-18T07:38:47.574Z,11.07
2017-09-18T07:39:56.414Z,11.11
2017-09-18T07:41:05.262Z,11.09
2017-09-18T07:42:14.252Z,11.18
2017-09-18T07:43:23.103Z,11.17
2017-09-18T07:44:31.945Z,11.09
2017-09-18T07:45:40.790Z,11.09
2017-09-18T07:46:49.636Z,11.09
2017-09-18T07:47:58.872Z,11.17
2017-09-18T07:49:07.715Z,11.25
2017-09-18T07:50:16.570Z,11.28
2017-09-18T07:51:25.414Z,11.27
2017-09-18T07:52:34.259Z,11.24
2017-09-18T07:53:43.257Z,11.25
2017-09-18T07:54:52.131Z,11.43
2017-09-18T07:56:01.030Z,11.43
2017-09-18T07:57:09.890Z,11.58
2017-09-18T07:58:18.737Z,11.58
2017-09-18T07:59:27.784Z,11.52
2017-09-18T08:00:36.637Z,11.69
2017-09-18T08:01:45.501Z,11.64
2017-09-18T08:02:54.346Z,11.69
2017-09-18T08:04:03.220Z,11.78
2017-09-18T08:05:12.317Z,11.76
2017-09-18T08:06:21.166Z,11.82
2017-09-18T08:07:30.351Z,11.75
2017-09-18T08:08:39.196Z,11.75
2017-09-18T08:09:48.042Z,11.73
2017-09-18T08:10:57.035Z,11.78
2017-09-18T08:12:05.896Z,11.75
2017-09-18T08:13:14.758Z,11.85
2017-09-18T08:14:23.605Z,11.85
2017-09-18T08:15:32.452Z,11.88
2017-09-18T08:16:41.348Z,11.91
2017-09-18T08:17:50.203Z,11.95
2017-09-18T08:18:59.046Z,12.01
2017-09-18T08:20:07.892Z,12.05
2017-09-18T08:21:16.740Z,12.04
2017-09-18T08:22:25.644Z,12.1
2017-09-18T08:23:34.499Z,12.07
2017-09-18T08:24:43.351Z,12.12
2017-09-18T08:25:52.194Z,12.1
2017-09-18T08:27:01.038Z,12.1
2017-09-18T08:28:10.057Z,12.07
2017-09-18T08:29:18.902Z,12.1
2017-09-18T08:30:27.746Z,12.07
2017-09-18T08:31:36.667Z,12.1
2017-09-18T08:32:45.540Z,12.14
2017-09-18T08:33:54.444Z,12.21
2017-09-18T08:35:03.288Z,12.13
2017-09-18T08:36:12.132Z,12.14
2017-09-18T08:37:21.316Z,12.19
2017-09-18T08:38:30.162Z,12.2
2017-09-18T08:39:39.155Z,12.17
2017-09-18T08:40:47.998Z,12.27
2017-09-18T08:41:56.843Z,12.23
2017-09-18T08:43:05.696Z,12.19
2017-09-18T08:44:14.552Z,12.24
2017-09-18T08:45:23.883Z,12.29
2017-09-18T08:46:32.737Z,12.31
2017-09-18T08:47:41.582Z,12.21
2017-09-18T08:48:50.443Z,12.35
2017-09-18T08:49:59.301Z,12.31
2017-09-18T08:51:08.196Z,12.38
2017-09-18T08:52:17.041Z,12.34
2017-09-18T08:53:25.923Z,12.38
2017-09-18T08:54:34.783Z,12.38
2017-09-18T08:55:43.625Z,12.49
2017-09-18T08:56:52.633Z,12.39
2017-09-18T08:58:01.482Z,12.5
2017-09-18T08:59:10.325Z,12.5
2017-09-18T09:00:19.171Z,12.62
2017-09-18T09:01:28.019Z,12.49
2017-09-18T09:02:37.014Z,12.56
2017-09-18T09:03:45.861Z,12.67
2017-09-18T09:04:55.051Z,12.68
2017-09-18T09:06:03.901Z,12.72
2017-09-18T09:07:12.746Z,12.75
2017-09-18T09:08:21.870Z,12.82
2017-09-18T09:09:30.722Z,12.85
2017-09-18T09:10:39.570Z,12.87
2017-09-18T09:11:48.420Z,12.89
2017-09-18T09:12:57.272Z,12.93
2017-09-18T09:14:06.375Z,12.96
2017-09-18T09:15:15.222Z,12.96
2017-09-18T09:16:24.280Z,12.92
2017-09-18T09:17:33.125Z,12.93
2017-09-18T09:18:41.974Z,12.93
2017-09-18T09:19:50.822Z,12.95
2017-09-18T09:20:59.686Z,13
2017-09-18T09:22:08.538Z,13
2017-09-18T09:23:17.382Z,13.01
2017-09-18T09:24:26.230Z,13
2017-09-18T09:25:35.127Z,13
2017-09-18T09:26:43.983Z,12.97
2017-09-18T09:27:52.831Z,13
2017-09-18T09:29:01.683Z,12.95
2017-09-18T09:30:10.584Z,12.96
2017-09-18T09:31:19.581Z,12.96
2017-09-18T09:32:28.461Z,12.97
2017-09-18T09:33:37.335Z,12.9
2017-09-18T09:34:46.194Z,12.96
2017-09-18T09:35:55.071Z,12.95
2017-09-18T09:37:03.920Z,12.95
2017-09-18T09:38:12.768Z,12.95
2017-09-18T09:39:21.618Z,13.01
2017-09-18T09:40:30.464Z,13.03
2017-09-18T09:41:39.673Z,13.03
2017-09-18T09:42:48.845Z,13.08
2017-09-18T09:43:57.697Z,13.03
2017-09-18T09:45:06.549Z,13.2
2017-09-18T09:46:15.397Z,13.19
2017-09-18T09:47:24.359Z,13.15
2017-09-18T09:48:33.545Z,13.3
2017-09-18T09:49:42.390Z,13.15
2017-09-18T09:50:51.232Z,13.2
2017-09-18T09:52:00.189Z,13.2
2017-09-18T09:53:09.033Z,13.17
2017-09-18T09:54:18.181Z,13.15
2017-09-18T09:55:27.049Z,13.15
2017-09-18T09:56:35.890Z,13.19
2017-09-18T09:57:44.739Z,13.19
2017-09-18T09:58:53.584Z,13.14
2017-09-18T10:00:02.483Z,13.25
2017-09-18T10:01:11.663Z,13.32
2017-09-18T10:02:20.518Z,13.33
2017-09-18T10:03:29.702Z,13.32
2017-09-18T10:04:38.555Z,13.32
2017-09-18T10:05:47.704Z,13.39
2017-09-18T10:06:56.550Z,13.51
2017-09-18T10:08:05.400Z,13.44
2017-09-18T10:09:14.247Z,13.63
2017-09-18T10:10:23.099Z,13.51
2017-09-18T10:11:32.099Z,13.57
2017-09-18T10:12:40.946Z,13.66
2017-09-18T10:13:49.789Z,13.6
2017-09-18T10:14:58.636Z,13.6
2017-09-18T10:16:07.482Z,13.73
2017-09-18T10:17:16.732Z,13.77
2017-09-18T10:18:25.578Z,13.69
2017-09-18T10:19:34.426Z,13.85
2017-09-18T10:20:43.276Z,13.77
2017-09-18T10:21:52.130Z,13.81
2017-09-18T10:23:01.026Z,13.82
2017-09-18T10:24:09.876Z,13.79
2017-09-18T10:25:18.724Z,13.82
2017-09-18T10:26:27.903Z,13.85
2017-09-18T10:27:36.749Z,13.91
2017-09-18T10:28:45.743Z,13.85
2017-09-18T10:29:54.590Z,13.84
2017-09-18T10:31:03.433Z,14.03
2017-09-18T10:32:12.278Z,13.99
2017-09-18T10:33:21.124Z,14.09
2017-09-18T10:34:30.073Z,14.17
2017-09-18T10:35:38.923Z,14.17
2017-09-18T10:36:47.777Z,14.2
2017-09-18T10:37:56.632Z,14.18
2017-09-18T10:39:05.479Z,14.22
2017-09-18T10:40:14.581Z,14.22
2017-09-18T10:41:23.429Z,14.14
2017-09-18T10:42:32.277Z,14.24
2017-09-18T10:43:41.124Z,14.29
2017-09-18T10:44:49.972Z,14.45
2017-09-18T10:45:59.311Z,14.37
2017-09-18T10:47:08.157Z,14.45
2017-09-18T10:48:17.011Z,14.51
2017-09-18T10:49:25.877Z,14.57
2017-09-18T10:50:34.726Z,14.62
2017-09-18T10:51:43.725Z,14.57
2017-09-18T10:52:52.576Z,14.61
2017-09-18T10:54:01.766Z,14.64
2017-09-18T10:55:10.613Z,14.6
2017-09-18T10:56:19.463Z,14.68
2017-09-18T10:57:28.465Z,14.68
2017-09-18T10:58:37.309Z,14.64
2017-09-18T10:59:46.159Z,14.61
2017-09-18T11:00:55.032Z,14.65
2017-09-18T11:02:04.215Z,14.65
2017-09-18T11:03:13.544Z,14.7
2017-09-18T11:04:22.395Z,14.75
2017-09-18T11:05:31.246Z,14.75
2017-09-18T11:06:40.091Z,14.8
2017-09-18T11:07:48.940Z,14.83
2017-09-18T11:08:57.936Z,14.86
2017-09-18T11:10:06.786Z,15.01
2017-09-18T11:11:15.635Z,15.14
2017-09-18T11:12:24.481Z,15.2
2017-09-18T11:13:33.328Z,15.25
2017-09-18T11:14:42.608Z,15.17
2017-09-18T11:15:51.454Z,15.25
2017-09-18T11:17:00.300Z,15.17
2017-09-18T11:18:09.153Z,15.21
2017-09-18T11:19:17.997Z,15.21
2017-09-18T11:20:26.996Z,15.14
2017-09-18T11:21:35.844Z,15.17
2017-09-18T11:22:44.691Z,15.16
2017-09-18T11:23:53.536Z,15.16
2017-09-18T11:25:02.382Z,15.19
2017-09-18T11:26:11.385Z,15.16
2017-09-18T11:27:20.238Z,15.14
2017-09-18T11:28:29.090Z,14.96
2017-09-18T11:29:37.940Z,14.96
2017-09-18T11:30:46.789Z,14.98
2017-09-18T11:31:55.685Z,14.89
2017-09-18T11:33:04.528Z,14.88
2017-09-18T11:34:13.376Z,14.89
2017-09-18T11:35:22.229Z,14.81
2017-09-18T11:36:31.076Z,14.89
2017-09-18T11:37:40.072Z,14.98
2017-09-18T11:38:48.917Z,14.99
2017-09-18T11:39:57.766Z,15.25
2017-09-18T11:41:06.616Z,15.11
2017-09-18T11:42:15.798Z,15.11
2017-09-18T11:43:24.705Z,15.1
2017-09-18T11:44:33.554Z,15.06
2017-09-18T11:45:42.404Z,14.99
2017-09-18T11:46:51.252Z,14.99
2017-09-18T11:48:00.102Z,15.13
2017-09-18T11:49:09.148Z,15.2
2017-09-18T11:50:17.994Z,15.19
2017-09-18T11:51:26.841Z,15.2
2017-09-18T11:52:35.688Z,15.23
2017-09-18T11:53:44.534Z,15.21
2017-09-18T11:54:53.634Z,15.21
2017-09-18T11:56:02.483Z,15.35
2017-09-18T11:57:11.335Z,15.27
2017-09-18T11:58:20.192Z,15.36
2017-09-18T11:59:29.047Z,15.39
2017-09-18T12:00:38.073Z,15.35
2017-09-18T12:01:46.921Z,15.46
2017-09-18T12:02:55.775Z,15.56
2017-09-18T12:04:04.624Z,15.56
2017-09-18T12:05:13.477Z,15.72
2017-09-18T12:06:22.868Z,15.69
2017-09-18T12:07:31.726Z,15.89
2017-09-18T12:08:40.581Z,16
2017-09-18T12:09:49.428Z,16.05
2017-09-18T12:10:58.284Z,16.02
2017-09-18T12:12:07.522Z,16.09
2017-09-18T12:13:16.372Z,16.11
2017-09-18T12:14:25.227Z,15.96
2017-09-18T12:15:34.083Z,15.8
2017-09-18T12:16:42.961Z,15.68
2017-09-18T12:17:51.859Z,15.65
2017-09-18T12:19:00.718Z,15.65
2017-09-18T12:20:09.572Z,15.65
2017-09-18T12:21:18.475Z,15.76
2017-09-18T12:22:27.329Z,15.78
2017-09-18T12:23:36.229Z,15.86
2017-09-18T12:24:45.086Z,15.87
2017-09-18T12:25:53.936Z,15.84
2017-09-18T12:27:02.839Z,15.87
2017-09-18T12:28:12.656Z,15.93
2017-09-18T12:29:21.889Z,15.92
2017-09-18T12:30:30.900Z,15.89
2017-09-18T12:31:39.806Z,15.86
2017-09-18T12:32:48.663Z,15.92
2017-09-18T12:33:57.510Z,15.83
2017-09-18T12:35:06.511Z,15.83
2017-09-18T12:36:15.359Z,15.84
2017-09-18T12:37:24.223Z,15.84
2017-09-18T12:38:33.075Z,15.82
2017-09-18T12:39:41.924Z,15.83
2017-09-18T12:40:50.821Z,15.86
2017-09-18T12:41:59.671Z,15.84
2017-09-18T12:43:08.520Z,15.83
2017-09-18T12:44:17.386Z,15.76
2017-09-18T12:45:26.602Z,15.78
2017-09-18T12:46:35.454Z,15.82
2017-09-18T12:47:44.308Z,15.68
2017-09-18T12:48:53.158Z,15.72
2017-09-18T12:50:02.007Z,15.64
2017-09-18T12:51:10.855Z,15.68
2017-09-18T12:52:20.003Z,15.69
2017-09-18T12:53:28.874Z,15.68
2017-09-18T12:54:37.722Z,15.83
2017-09-18T12:55:46.572Z,15.8
2017-09-18T12:56:55.423Z,15.76
2017-09-18T12:58:04.371Z,15.76
2017-09-18T12:59:13.218Z,15.8
2017-09-18T13:00:22.069Z,15.84
2017-09-18T13:01:30.919Z,15.82
2017-09-18T13:02:39.769Z,15.83
2017-09-18T13:03:48.617Z,15.8
2017-09-18T13:04:57.471Z,15.78
2017-09-18T13:06:06.667Z,15.75
2017-09-18T13:07:15.520Z,15.82
2017-09-18T13:08:24.370Z,15.78
2017-09-18T13:09:33.321Z,15.84
2017-09-18T13:10:42.169Z,15.76
2017-09-18T13:11:51.018Z,15.83
2017-09-18T13:12:59.867Z,15.84
2017-09-18T13:14:08.717Z,15.86
2017-09-18T13:15:17.715Z,15.86
2017-09-18T13:16:26.570Z,15.71
2017-09-18T13:17:36.080Z,15.76
2017-09-18T13:18:44.931Z,15.76
2017-09-18T13:19:54.450Z,15.68
2017-09-18T13:21:03.446Z,15.71
2017-09-18T13:22:12.293Z,15.68
2017-09-18T13:23:21.144Z,15.75
2017-09-18T13:24:29.998Z,15.69
2017-09-18T13:25:38.856Z,15.68
2017-09-18T13:26:47.858Z,15.69
2017-09-18T13:27:56.709Z,15.72
2017-09-18T13:29:05.565Z,15.76
2017-09-18T13:30:14.420Z,15.78
2017-09-18T13:31:23.270Z,15.76
2017-09-18T13:32:32.126Z,15.84
2017-09-18T13:33:41.028Z,15.83
2017-09-18T13:34:49.964Z,15.84
2017-09-18T13:35:58.812Z,15.86
2017-09-18T13:37:07.664Z,15.89
2017-09-18T13:38:16.841Z,15.92
2017-09-18T13:39:25.906Z,15.9
2017-09-18T13:40:34.900Z,15.84
2017-09-18T13:41:44.035Z,15.86
2017-09-18T13:42:52.919Z,15.74
2017-09-18T13:44:01.991Z,15.87
2017-09-18T13:45:11.394Z,15.78
2017-09-18T13:46:20.358Z,15.87
2017-09-18T13:47:29.347Z,15.8
2017-09-18T13:48:38.334Z,15.9
2017-09-18T13:49:47.402Z,15.92
2017-09-18T13:50:56.289Z,15.93
2017-09-18T13:52:05.902Z,15.97
2017-09-18T13:53:14.783Z,16.07
2017-09-18T13:54:24.111Z,16.24
2017-09-18T13:55:33.283Z,16.28
2017-09-18T13:56:42.264Z,16.27
2017-09-18T13:57:51.227Z,16.23
2017-09-18T13:59:00.163Z,16.23
2017-09-18T14:00:09.035Z,16.27
2017-09-18T14:01:18.063Z,16.24
2017-09-18T14:02:26.921Z,16.23
2017-09-18T14:03:35.779Z,16.15
2017-09-18T14:04:44.630Z,16.09
2017-09-18T14:05:53.484Z,16.5
2017-09-18T14:07:02.640Z,16.49
2017-09-18T14:08:11.498Z,16.5
2017-09-18T14:09:20.398Z,16.73
2017-09-18T14:10:29.255Z,16.68
2017-09-18T14:11:38.441Z,16.75
2017-09-18T14:12:47.349Z,16.7
2017-09-18T14:13:56.201Z,16.76
2017-09-18T14:15:05.081Z,16.78
2017-09-18T14:16:13.932Z,16.91
2017-09-18T14:17:22.782Z,16.76
2017-09-18T14:18:31.735Z,16.75
2017-09-18T14:19:40.586Z,16.78
2017-09-18T14:20:49.438Z,16.79
2017-09-18T14:21:58.292Z,16.71
2017-09-18T14:23:07.146Z,16.5
2017-09-18T14:24:16.146Z,16.48
2017-09-18T14:25:24.997Z,16.52
2017-09-18T14:26:33.845Z,16.49
2017-09-18T14:27:42.694Z,16.53
2017-09-18T14:28:51.543Z,16.64
2017-09-18T14:30:00.394Z,16.56
2017-09-18T14:31:09.245Z,16.58
2017-09-18T14:32:18.092Z,16.58
2017-09-18T14:33:26.944Z,16.66
2017-09-18T14:34:35.796Z,16.46
2017-09-18T14:35:44.798Z,16.42
2017-09-18T14:36:53.650Z,16.49
2017-09-18T14:38:02.499Z,16.43
2017-09-18T14:39:11.351Z,16.24
2017-09-18T14:40:20.257Z,16.21
2017-09-18T14:41:29.300Z,16.3
2017-09-18T14:42:38.260Z,16.28
2017-09-18T14:43:47.200Z,16.25
2017-09-18T14:44:56.140Z,16.28
2017-09-18T14:46:05.069Z,16.28
2017-09-18T14:47:14.015Z,16.27
2017-09-18T14:48:22.954Z,16.28
2017-09-18T14:49:31.851Z,16.2
2017-09-18T14:50:40.827Z,16.14
2017-09-18T14:51:50.032Z,16.05
2017-09-18T14:52:59.178Z,16
2017-09-18T14:54:08.032Z,15.94
2017-09-18T14:55:16.931Z,16.01
2017-09-18T14:56:25.838Z,15.97
2017-09-18T14:57:34.720Z,15.93
2017-09-18T14:58:43.657Z,15.94
2017-09-18T14:59:52.519Z,15.97
2017-09-18T15:01:01.366Z,15.87
2017-09-18T15:02:10.604Z,15.86
2017-09-18T15:03:19.578Z,15.84